createdAt,value
2018-02-16T00:01:55.398Z,94.90
2018-02-16T00:04:22.905Z,94.90
2018-02-16T00:06:50.440Z,95.30
2018-02-16T00:09:18.725Z,95.70
2018-02-16T00:11:46.265Z,95.70
2018-02-16T00:14:13.761Z,95.70
2018-02-16T00:16:41.249Z,95.80
2018-02-16T00:19:08.759Z,95.60
2018-02-16T00:21:36.256Z,95.50
2018-02-16T00:24:03.776Z,95.40
2018-02-16T00:26:31.281Z,95.50
2018-02-16T00:28:58.808Z,95.40
2018-02-16T00:31:26.839Z,95.20
2018-02-16T00:33:54.320Z,95.40
2018-02-16T00:36:21.808Z,95.10
2018-02-16T00:38:49.314Z,95.20
2018-02-16T00:41:16.833Z,95.00
2018-02-16T00:43:44.322Z,95.40
2018-02-16T00:46:11.820Z,95.70
2018-02-16T00:48:39.342Z,95.70
2018-02-16T00:51:06.845Z,96.00
2018-02-16T00:53:35.108Z,97.00
2018-02-16T00:56:02.651Z,96.90
2018-02-16T00:58:30.148Z,97.00
2018-02-16T01:00:57.699Z,96.30
2018-02-16T01:03:25.230Z,97.00
2018-02-16T01:05:52.768Z,97.10
2018-02-16T01:08:20.299Z,97.10
2018-02-16T01:10:48.570Z,96.20
2018-02-16T01:13:16.072Z,96.20
2018-02-16T01:15:43.579Z,96.50
2018-02-16T01:18:11.859Z,95.50
2018-02-16T01:20:39.405Z,95.50
2018-02-16T01:23:06.892Z,95.60
2018-02-16T01:25:34.452Z,95.70
2018-02-16T01:28:01.996Z,95.50
2018-02-16T01:30:29.497Z,96.00
2018-02-16T01:32:57.032Z,96.30
2018-02-16T01:35:25.295Z,96.80
2018-02-16T01:37:52.818Z,96.70
2018-02-16T01:40:20.324Z,96.40
2018-02-16T01:42:48.607Z,97.00
2018-02-16T01:45:16.115Z,96.90
2018-02-16T01:47:43.618Z,96.90
2018-02-16T01:50:11.164Z,96.40
2018-02-16T01:52:38.657Z,97.40
2018-02-16T01:55:06.217Z,96.90
2018-02-16T01:57:33.762Z,96.40
2018-02-16T02:00:02.031Z,97.50
2018-02-16T02:02:29.529Z,97.40
2018-02-16T02:04:57.047Z,97.40
2018-02-16T02:07:24.550Z,97.40
2018-02-16T02:09:52.806Z,96.40
2018-02-16T02:12:20.334Z,96.40
2018-02-16T02:14:47.868Z,96.30
2018-02-16T02:17:15.769Z,95.90
2018-02-16T02:19:43.290Z,95.80
2018-02-16T02:22:10.780Z,95.50
2018-02-16T02:24:38.278Z,95.40
2018-02-16T02:27:05.794Z,96.00
2018-02-16T02:29:33.296Z,95.70
2018-02-16T02:32:00.794Z,95.70
2018-02-16T02:34:28.286Z,96.00
2018-02-16T02:36:57.328Z,95.80
2018-02-16T02:39:24.829Z,95.80
2018-02-16T02:41:52.337Z,95.50
2018-02-16T02:44:19.840Z,95.90
2018-02-16T02:46:47.362Z,96.20
2018-02-16T02:49:14.878Z,96.80
2018-02-16T02:51:42.408Z,96.90
2018-02-16T02:54:09.931Z,97.70
2018-02-16T02:56:37.447Z,97.10
2018-02-16T02:59:04.965Z,97.80
2018-02-16T03:01:32.469Z,98.40
2018-02-16T03:03:59.978Z,99.00
2018-02-16T03:06:34.275Z,99.00
2018-02-16T03:09:01.781Z,99.20
2018-02-16T03:11:29.265Z,99.20
2018-02-16T03:13:56.772Z,99.90
2018-02-16T03:16:24.343Z,99.90
2018-02-16T03:18:51.868Z,99.60
2018-02-16T03:21:19.357Z,99.70
2018-02-16T03:23:46.855Z,99.70
2018-02-16T03:26:14.351Z,99.70
2018-02-16T03:28:41.854Z,99.70
2018-02-16T03:31:09.387Z,99.60
2018-02-16T03:33:36.875Z,99.40
2018-02-16T03:36:04.363Z,99.70
2018-02-16T03:38:31.896Z,99.80
2018-02-16T03:40:59.380Z,99.70
2018-02-16T03:43:26.941Z,99.10
2018-02-16T03:45:54.473Z,98.80
2018-02-16T03:48:21.985Z,98.90
2018-02-16T03:50:49.483Z,98.30
2018-02-16T03:53:16.980Z,98.60
2018-02-16T03:55:44.480Z,98.60
2018-02-16T03:58:11.976Z,98.80
2018-02-16T04:00:39.491Z,98.20
2018-02-16T04:03:07.015Z,98.50
2018-02-16T04:05:34.524Z,98.60
2018-02-16T04:08:02.056Z,98.40
2018-02-16T04:10:29.566Z,98.20
2018-02-16T04:12:57.144Z,98.40
2018-02-16T04:15:24.659Z,98.60
2018-02-16T04:17:52.934Z,98.90
2018-02-16T04:20:20.422Z,98.90
2018-02-16T04:22:47.934Z,98.50
2018-02-16T04:25:15.420Z,98.50
2018-02-16T04:27:43.730Z,97.50
2018-02-16T04:30:11.224Z,97.50
2018-02-16T04:32:38.731Z,96.90
2018-02-16T04:35:08.203Z,97.00
2018-02-16T04:37:35.702Z,96.60
2018-02-16T04:40:03.208Z,96.60
2018-02-16T04:42:30.757Z,96.50
2018-02-16T04:44:58.349Z,96.50
2018-02-16T04:47:25.842Z,96.50
2018-02-16T04:49:53.356Z,96.60
2018-02-16T04:52:20.867Z,96.60
2018-02-16T04:54:48.359Z,96.90
2018-02-16T04:57:17.464Z,97.10
2018-02-16T04:59:44.976Z,97.10
2018-02-16T05:02:12.470Z,98.30
2018-02-16T05:04:39.973Z,98.90
2018-02-16T05:07:07.498Z,99.30
2018-02-16T05:09:35.022Z,99.10
2018-02-16T05:12:02.541Z,99.10
2018-02-16T05:14:30.055Z,99.10
2018-02-16T05:16:57.552Z,99.60
2018-02-16T05:19:25.047Z,99.10
2018-02-16T05:21:52.579Z,99.30
2018-02-16T05:24:20.072Z,99.00
2018-02-16T05:26:47.584Z,98.60
2018-02-16T05:29:15.087Z,98.90
2018-02-16T05:31:42.590Z,99.00
2018-02-16T05:34:10.110Z,99.10
2018-02-16T05:36:37.615Z,99.20
2018-02-16T05:39:05.105Z,98.70
2018-02-16T05:41:33.380Z,98.70
2018-02-16T05:44:00.912Z,98.60
2018-02-16T05:46:28.430Z,98.40
2018-02-16T05:48:55.957Z,98.60
2018-02-16T05:51:23.465Z,98.60
2018-02-16T05:53:50.987Z,98.50
2018-02-16T05:56:19.256Z,98.90
2018-02-16T05:58:46.783Z,98.90
2018-02-16T06:01:14.298Z,98.70
2018-02-16T06:03:41.806Z,98.80
2018-02-16T06:06:09.325Z,98.90
2018-02-16T06:08:36.896Z,99.30
2018-02-16T06:11:05.319Z,99.00
2018-02-16T06:13:32.861Z,98.90
2018-02-16T06:16:00.418Z,98.70
2018-02-16T06:18:27.931Z,98.90
2018-02-16T06:20:55.454Z,99.00
2018-02-16T06:23:22.957Z,98.90
2018-02-16T06:25:50.497Z,99.00
2018-02-16T06:28:18.034Z,99.00
2018-02-16T06:30:45.580Z,99.00
2018-02-16T06:33:13.108Z,98.80
2018-02-16T06:35:40.623Z,98.70
2018-02-16T06:38:08.126Z,98.70
2018-02-16T06:40:35.679Z,98.80
2018-02-16T06:43:03.205Z,99.00
2018-02-16T06:45:30.743Z,98.90
2018-02-16T06:47:58.377Z,99.00
2018-02-16T06:50:25.893Z,98.90
2018-02-16T06:52:53.451Z,98.80
2018-02-16T06:55:20.949Z,99.00
2018-02-16T06:57:48.508Z,99.00
2018-02-16T07:00:16.052Z,98.70
2018-02-16T07:02:44.375Z,98.90
2018-02-16T07:05:11.874Z,98.80
2018-02-16T07:07:39.415Z,98.70
2018-02-16T07:10:06.928Z,98.20
2018-02-16T07:12:34.425Z,98.40
2018-02-16T07:15:01.970Z,98.60
2018-02-16T07:17:29.465Z,98.60
2018-02-16T07:19:56.968Z,98.60
2018-02-16T07:22:24.482Z,98.40
2018-02-16T07:24:51.987Z,98.10
2018-02-16T07:27:19.492Z,98.20
2018-02-16T07:29:47.034Z,98.20
2018-02-16T07:32:14.556Z,98.30
2018-02-16T07:34:42.822Z,98.40
2018-02-16T07:37:10.325Z,98.30
2018-02-16T07:39:37.857Z,98.50
2018-02-16T07:42:06.130Z,98.70
2018-02-16T07:44:33.633Z,98.70
2018-02-16T07:47:01.145Z,98.60
2018-02-16T07:49:28.683Z,98.60
2018-02-16T07:51:56.230Z,98.50
2018-02-16T07:54:23.780Z,98.60
2018-02-16T07:56:51.289Z,98.50
2018-02-16T07:59:19.551Z,97.50
2018-02-16T08:01:47.113Z,97.50
2018-02-16T08:04:14.633Z,96.20
2018-02-16T08:06:42.200Z,96.40
2018-02-16T08:09:09.802Z,95.40
2018-02-16T08:11:38.102Z,94.10
2018-02-16T08:14:05.752Z,94.00
2018-02-16T08:16:33.252Z,94.20
2018-02-16T08:19:00.800Z,94.00
2018-02-16T08:21:28.290Z,94.30
2018-02-16T08:23:55.807Z,92.80
2018-02-16T08:26:23.326Z,92.40
2018-02-16T08:28:51.619Z,91.50
2018-02-16T08:31:19.907Z,92.10
2018-02-16T08:33:47.398Z,91.80
2018-02-16T08:36:14.936Z,90.10
2018-02-16T08:38:42.456Z,90.70
2018-02-16T08:41:10.005Z,91.00
2018-02-16T08:43:37.524Z,90.60
2018-02-16T08:46:05.040Z,88.70
2018-02-16T08:48:32.654Z,88.60
2018-02-16T08:51:00.178Z,90.00
2018-02-16T08:53:27.687Z,90.50
2018-02-16T08:55:55.185Z,89.00
2018-02-16T08:58:22.848Z,89.20
2018-02-16T09:00:50.385Z,89.30
2018-02-16T09:03:17.926Z,89.10
2018-02-16T09:05:45.424Z,88.30
2018-02-16T09:08:12.938Z,89.00
2018-02-16T09:10:40.470Z,86.00
2018-02-16T09:13:07.983Z,84.20
2018-02-16T09:15:35.552Z,79.70
2018-02-16T09:18:03.137Z,83.70
2018-02-16T09:20:30.669Z,86.00
2018-02-16T09:22:58.180Z,86.30
2018-02-16T09:25:26.478Z,85.20
2018-02-16T09:27:53.972Z,85.10
2018-02-16T09:30:21.523Z,84.90
2018-02-16T09:32:49.101Z,82.20
2018-02-16T09:35:16.606Z,81.90
2018-02-16T09:37:44.286Z,83.00
2018-02-16T09:40:11.822Z,80.60
2018-02-16T09:42:39.320Z,84.80
2018-02-16T09:45:06.894Z,83.00
2018-02-16T09:47:34.407Z,80.50
2018-02-16T09:50:01.976Z,77.20
2018-02-16T09:52:29.609Z,76.90
2018-02-16T09:55:00.740Z,77.40
2018-02-16T09:57:28.252Z,77.30
2018-02-16T09:59:55.749Z,72.20
2018-02-16T10:02:23.267Z,73.90
2018-02-16T10:04:50.778Z,73.40
2018-02-16T10:07:18.276Z,72.90
2018-02-16T10:09:45.792Z,70.00
2018-02-16T10:12:13.366Z,67.30
2018-02-16T10:14:40.870Z,73.90
2018-02-16T10:17:08.370Z,68.70
2018-02-16T10:19:35.934Z,67.00
2018-02-16T10:22:03.435Z,71.30
2018-02-16T10:24:31.704Z,70.60
2018-02-16T10:26:59.989Z,72.20
2018-02-16T10:29:27.494Z,72.00
2018-02-16T10:31:54.996Z,69.90
2018-02-16T10:34:23.266Z,69.50
2018-02-16T10:36:50.822Z,69.40
2018-02-16T10:39:18.352Z,70.40
2018-02-16T10:41:45.853Z,68.30
2018-02-16T10:44:13.378Z,68.00
2018-02-16T10:46:41.023Z,68.70
2018-02-16T10:49:08.516Z,68.70
2018-02-16T10:51:36.099Z,72.80
2018-02-16T10:54:04.004Z,71.50
2018-02-16T10:56:32.263Z,68.40
2018-02-16T10:58:59.806Z,68.40
2018-02-16T11:01:27.354Z,68.50
2018-02-16T11:03:58.893Z,65.30
2018-02-16T11:06:31.959Z,64.40
2018-02-16T11:09:05.178Z,62.70
2018-02-16T11:11:32.687Z,66.40
2018-02-16T11:14:00.186Z,66.20
2018-02-16T11:16:27.712Z,66.00
2018-02-16T11:18:55.225Z,64.40
2018-02-16T11:21:22.768Z,63.40
2018-02-16T11:23:50.351Z,65.50
2018-02-16T11:26:17.872Z,62.20
2018-02-16T11:28:45.384Z,62.80
2018-02-16T11:31:13.800Z,61.80
2018-02-16T11:33:41.308Z,61.80
2018-02-16T11:36:08.845Z,62.60
2018-02-16T11:38:36.340Z,67.70
2018-02-16T11:41:04.671Z,69.90
2018-02-16T11:43:32.193Z,69.90
2018-02-16T11:46:00.490Z,68.50
2018-02-16T11:48:28.071Z,68.50
2018-02-16T11:50:55.636Z,63.60
2018-02-16T11:53:23.137Z,67.90
2018-02-16T11:55:50.670Z,67.80
2018-02-16T11:58:18.165Z,66.00
2018-02-16T12:00:46.500Z,64.00
2018-02-16T12:03:14.039Z,63.80
2018-02-16T12:05:41.570Z,60.00
2018-02-16T12:08:09.109Z,62.50
2018-02-16T12:10:36.608Z,61.30
2018-02-16T12:13:04.104Z,63.70
2018-02-16T12:15:31.674Z,62.10
2018-02-16T12:17:59.169Z,59.60
2018-02-16T12:20:26.679Z,60.10
2018-02-16T12:22:54.203Z,59.80
2018-02-16T12:25:21.704Z,62.70
2018-02-16T12:27:49.202Z,62.00
2018-02-16T12:30:17.496Z,59.10
2018-02-16T12:32:45.042Z,58.90
2018-02-16T12:35:13.379Z,57.20
2018-02-16T12:37:40.942Z,57.20
2018-02-16T12:40:08.442Z,57.20
2018-02-16T12:42:35.994Z,57.60
2018-02-16T12:45:03.504Z,56.20
2018-02-16T12:47:31.068Z,57.50
2018-02-16T12:49:58.560Z,57.30
2018-02-16T12:52:26.061Z,56.10
2018-02-16T12:54:53.581Z,56.50
2018-02-16T12:57:21.077Z,55.40
2018-02-16T12:59:48.589Z,54.40
2018-02-16T13:02:16.105Z,55.50
2018-02-16T13:04:43.683Z,55.70
2018-02-16T13:07:11.248Z,56.70
2018-02-16T13:09:38.789Z,58.10
2018-02-16T13:12:06.340Z,58.80
2018-02-16T13:14:33.848Z,55.60
2018-02-16T13:17:01.351Z,55.70
2018-02-16T13:19:28.874Z,56.70
2018-02-16T13:21:56.379Z,57.20
2018-02-16T13:24:23.869Z,55.00
2018-02-16T13:26:51.406Z,53.90
2018-02-16T13:29:18.897Z,52.40
2018-02-16T13:31:46.466Z,54.80
2018-02-16T13:34:13.965Z,55.70
2018-02-16T13:36:42.249Z,55.70
2018-02-16T13:39:10.064Z,55.70
2018-02-16T13:41:37.579Z,54.00
2018-02-16T13:44:05.856Z,53.20
2018-02-16T13:46:33.376Z,53.20
2018-02-16T13:49:00.906Z,54.80
2018-02-16T13:51:28.386Z,55.50
2018-02-16T13:53:55.885Z,54.70
2018-02-16T13:56:23.382Z,56.40
2018-02-16T13:58:50.882Z,56.40
2018-02-16T14:01:18.386Z,55.20
2018-02-16T14:03:45.894Z,55.50
2018-02-16T14:06:13.395Z,54.40
2018-02-16T14:08:40.920Z,54.70
2018-02-16T14:11:08.438Z,54.80
2018-02-16T14:13:35.932Z,55.90
2018-02-16T14:16:03.435Z,54.70
2018-02-16T14:18:30.948Z,56.40
2018-02-16T14:20:58.438Z,55.90
2018-02-16T14:23:26.695Z,55.00
2018-02-16T14:25:54.194Z,55.00
2018-02-16T14:28:21.720Z,55.80
2018-02-16T14:30:49.233Z,55.70
2018-02-16T14:33:16.734Z,57.00
2018-02-16T14:35:44.256Z,56.40
2018-02-16T14:38:11.774Z,56.70
2018-02-16T14:40:39.274Z,56.20
2018-02-16T14:43:06.781Z,58.40
2018-02-16T14:45:34.276Z,57.40
2018-02-16T14:48:01.783Z,57.90
2018-02-16T14:50:29.272Z,57.40
2018-02-16T14:52:56.766Z,57.80
2018-02-16T14:55:24.273Z,57.50
2018-02-16T14:57:51.793Z,57.30
2018-02-16T15:00:19.329Z,56.40
2018-02-16T15:02:47.593Z,57.50
2018-02-16T15:05:15.183Z,57.50
2018-02-16T15:07:42.685Z,56.90
2018-02-16T15:10:10.221Z,57.00
2018-02-16T15:12:37.711Z,57.30
2018-02-16T15:15:05.201Z,59.20
2018-02-16T15:17:32.721Z,57.80
2018-02-16T15:20:00.227Z,58.10
2018-02-16T15:22:28.493Z,58.80
2018-02-16T15:24:55.986Z,58.80
2018-02-16T15:27:23.536Z,58.60
2018-02-16T15:29:51.046Z,59.40
2018-02-16T15:32:18.631Z,59.40
2018-02-16T15:34:46.173Z,58.80
2018-02-16T15:37:13.703Z,58.70
2018-02-16T15:39:41.194Z,58.90
2018-02-16T15:42:08.716Z,60.20
2018-02-16T15:44:36.197Z,59.00
2018-02-16T15:47:03.692Z,59.90
2018-02-16T15:49:31.192Z,59.50
2018-02-16T15:51:58.733Z,59.50
2018-02-16T15:54:27.023Z,59.90
2018-02-16T15:56:54.539Z,59.90
2018-02-16T15:59:22.022Z,60.00
2018-02-16T16:01:50.310Z,59.80
2018-02-16T16:04:17.861Z,59.90
2018-02-16T16:06:46.131Z,59.40
2018-02-16T16:09:13.632Z,59.40
2018-02-16T16:11:41.116Z,59.90
2018-02-16T16:14:08.624Z,60.00
2018-02-16T16:16:36.145Z,60.10
2018-02-16T16:19:03.616Z,60.40
2018-02-16T16:21:31.108Z,61.20
2018-02-16T16:23:58.615Z,61.50
2018-02-16T16:26:26.114Z,62.60
2018-02-16T16:28:53.632Z,62.30
2018-02-16T16:31:21.114Z,61.60
2018-02-16T16:33:48.600Z,61.90
2018-02-16T16:36:16.115Z,62.10
2018-02-16T16:38:43.595Z,64.10
2018-02-16T16:41:11.843Z,64.10
2018-02-16T16:43:39.342Z,64.00
2018-02-16T16:46:07.594Z,63.40
2018-02-16T16:48:35.098Z,63.50
2018-02-16T16:51:02.595Z,65.10
2018-02-16T16:53:30.108Z,67.00
2018-02-16T16:55:58.398Z,68.90
2018-02-16T16:58:25.889Z,68.90
2018-02-16T17:00:53.419Z,69.50
2018-02-16T17:03:20.919Z,70.70
2018-02-16T17:05:48.412Z,70.60
2018-02-16T17:08:16.711Z,71.00
2018-02-16T17:10:44.202Z,71.00
2018-02-16T17:13:11.707Z,71.10
2018-02-16T17:15:40.009Z,72.20
2018-02-16T17:18:07.532Z,72.20
2018-02-16T17:20:35.109Z,72.10
2018-02-16T17:23:03.482Z,72.70
2018-02-16T17:25:31.069Z,72.90
2018-02-16T17:27:58.584Z,73.10
2018-02-16T17:30:26.078Z,73.00
2018-02-16T17:32:53.658Z,73.20
2018-02-16T17:35:21.166Z,73.00
2018-02-16T17:43:41.029Z,72.60
2018-02-16T17:46:09.235Z,74.00
2018-02-16T17:48:39.573Z,74.00
2018-02-16T17:51:07.077Z,74.50
2018-02-16T17:53:35.441Z,75.30
2018-02-16T17:56:02.948Z,75.20
2018-02-16T17:58:30.550Z,77.30
2018-02-16T18:00:59.232Z,77.50
2018-02-16T18:03:26.727Z,77.50
2018-02-16T18:05:54.401Z,77.70
2018-02-16T18:08:22.974Z,76.50
2018-02-16T18:10:50.972Z,76.50
2018-02-16T18:13:21.047Z,76.70
2018-02-16T18:15:48.557Z,77.10
2018-02-16T18:18:16.063Z,77.30
2018-02-16T18:20:43.555Z,77.60
2018-02-16T18:23:11.068Z,77.70
2018-02-16T18:25:38.581Z,77.70
2018-02-16T18:28:06.874Z,78.70
2018-02-16T18:30:34.436Z,78.70
2018-02-16T18:33:01.932Z,80.20
2018-02-16T18:35:29.419Z,79.40
2018-02-16T18:37:57.699Z,79.20
2018-02-16T18:40:25.969Z,79.20
2018-02-16T18:42:53.452Z,79.20
2018-02-16T18:45:21.084Z,79.00
2018-02-16T18:47:48.555Z,78.80
2018-02-16T18:50:16.067Z,78.70
2018-02-16T18:52:43.569Z,78.30
2018-02-16T18:55:11.843Z,78.80
2018-02-16T18:57:39.332Z,78.90
2018-02-16T19:00:06.854Z,80.00
2018-02-16T19:02:34.330Z,80.50
2018-02-16T19:05:01.865Z,80.10
2018-02-16T19:07:29.445Z,80.50
2018-02-16T19:09:56.996Z,81.10
2018-02-16T19:12:26.032Z,81.40
2018-02-16T19:14:53.516Z,81.40
2018-02-16T19:17:21.038Z,81.70
2018-02-16T19:19:49.284Z,82.80
2018-02-16T19:22:16.763Z,82.70
2018-02-16T19:24:44.272Z,82.80
2018-02-16T19:27:11.760Z,82.40
2018-02-16T19:29:39.254Z,82.40
2018-02-16T19:32:07.607Z,83.70
2018-02-16T19:34:35.268Z,83.70
2018-02-16T19:37:02.992Z,83.40
2018-02-16T19:39:30.566Z,83.40
2018-02-16T19:41:58.367Z,82.90
2018-02-16T19:44:26.937Z,82.30
2018-02-16T19:46:54.500Z,82.30
2018-02-16T19:49:22.328Z,82.10
2018-02-16T19:51:50.126Z,81.80
2018-02-16T19:54:17.690Z,81.50
2018-02-16T19:56:45.192Z,81.90
2018-02-16T19:59:13.688Z,82.10
2018-02-16T20:01:41.537Z,82.40
2018-02-16T20:04:09.360Z,83.00
2018-02-16T20:06:38.047Z,83.50
2018-02-16T20:09:05.579Z,83.40
2018-02-16T20:11:33.077Z,84.50
2018-02-16T20:14:00.586Z,85.10
2018-02-16T20:16:28.384Z,84.80
2018-02-16T20:18:56.734Z,84.10
2018-02-16T20:21:25.012Z,83.90
2018-02-16T20:23:52.773Z,83.90
2018-02-16T20:26:20.602Z,84.60
2018-02-16T20:28:48.494Z,86.10
2018-02-16T20:31:16.317Z,86.90
2018-02-16T20:33:44.103Z,86.10
2018-02-16T20:36:11.869Z,85.30
2018-02-16T20:38:39.413Z,85.40
2018-02-16T20:41:06.926Z,85.10
2018-02-16T20:43:35.211Z,85.70
2018-02-16T20:46:02.906Z,85.60
2018-02-16T20:48:30.591Z,85.40
2018-02-16T20:50:59.002Z,84.80
2018-02-16T20:53:27.277Z,85.00
2018-02-16T20:55:56.323Z,84.90
2018-02-16T20:58:23.868Z,84.80
2018-02-16T21:00:51.398Z,84.90
2018-02-16T21:03:18.978Z,85.20
2018-02-16T21:05:46.514Z,86.00
2018-02-16T21:08:14.792Z,86.50
2018-02-16T21:10:42.336Z,86.50
2018-02-16T21:13:09.833Z,86.40
2018-02-16T21:15:38.246Z,86.10
2018-02-16T21:18:06.107Z,86.00
2018-02-16T21:20:34.101Z,86.00
2018-02-16T21:23:02.429Z,86.10
2018-02-16T21:25:32.928Z,86.20
2018-02-16T21:28:00.885Z,86.10
2018-02-16T21:30:28.388Z,86.10
2018-02-16T21:32:55.915Z,86.30
2018-02-16T21:35:23.562Z,86.70
2018-02-16T21:37:51.199Z,86.70
2018-02-16T21:40:19.022Z,86.70
2018-02-16T21:42:46.858Z,86.50
2018-02-16T21:45:14.377Z,86.50
2018-02-16T21:47:41.905Z,86.40
2018-02-16T21:50:09.485Z,86.70
2018-02-16T21:52:37.007Z,86.90
2018-02-16T21:55:04.552Z,86.80
2018-02-16T21:57:32.206Z,87.00
2018-02-16T22:00:00.391Z,87.70
2018-02-16T22:02:27.940Z,87.60
2018-02-16T22:04:55.635Z,87.30
2018-02-16T22:07:23.160Z,87.30
2018-02-16T22:09:50.678Z,87.60
2018-02-16T22:12:18.286Z,87.40
2018-02-16T22:14:45.995Z,87.70
2018-02-16T22:17:13.551Z,87.90
2018-02-16T22:19:41.085Z,87.90
2018-02-16T22:22:08.606Z,88.00
2018-02-16T22:24:36.146Z,87.50
2018-02-16T22:27:04.405Z,88.10
2018-02-16T22:29:31.893Z,87.20
2018-02-16T22:31:59.425Z,87.70
2018-02-16T22:34:26.950Z,88.90
2018-02-16T22:36:54.453Z,89.80
2018-02-16T22:39:22.689Z,90.10
2018-02-16T22:41:50.213Z,89.80
2018-02-16T22:44:18.531Z,88.80
2018-02-16T22:46:46.044Z,88.80
2018-02-16T22:49:14.313Z,88.30
2018-02-16T22:51:41.817Z,88.20
2018-02-16T22:54:09.363Z,89.20
2018-02-16T22:56:36.877Z,88.90
2018-02-16T22:59:04.389Z,88.50
2018-02-16T23:01:31.916Z,88.30
2018-02-16T23:03:59.490Z,88.20
2018-02-16T23:06:27.808Z,88.30
2018-02-16T23:08:55.397Z,88.20
2018-02-16T23:11:22.925Z,88.30
2018-02-16T23:13:50.482Z,88.20
2018-02-16T23:16:18.044Z,88.00
2018-02-16T23:18:45.544Z,88.10
2018-02-16T23:21:13.136Z,88.10
2018-02-16T23:23:40.648Z,88.50
2018-02-16T23:26:08.164Z,88.40
2018-02-16T23:28:36.448Z,88.60
2018-02-16T23:31:03.950Z,88.60
2018-02-16T23:33:31.440Z,88.80
2018-02-16T23:35:59.768Z,88.40
2018-02-16T23:38:27.279Z,88.30
2018-02-16T23:40:55.563Z,88.80
2018-02-16T23:43:23.009Z,88.70
2018-02-16T23:45:50.522Z,88.40
2018-02-16T23:48:18.030Z,88.40
2018-02-16T23:50:45.544Z,88.20
2018-02-16T23:53:13.807Z,88.60
2018-02-16T23:55:41.346Z,88.60
2018-02-16T23:58:08.851Z,88.70
